Gallup, New Mexico
Current Conditions -  °F | °C
As of 7:33 AM on Sunday 23 Nov 2014 (Local Time) from KGUP Reporting Station
Overcast Overcast  
Wind Chill: 24°   Ceiling: 3600
Heat Index: 33°   Visibility: 10mi
Dew Point: 26°   Wind: 13mph
Humidity: 75%   Direction: 320°NW
Pressure: 29.97"   Gusts: NA
Location:  35.53°N, 108.74°W
Report Text: KGUP 231433Z AUTO 32011KT 10SM SCT016 BKN036 OVC049 01/M03 A2997 RMK AO2 SNB1357E27 P0000 T00061033
Loading
Personal Weather Stations






























Interactive Weather Map New forecast layout! Learn more

10-Day Weather Forecast

Advertisements
Track Severe Weather on mobile